sensor_id;sensor_type;location;lat;lon;timestamp;pressure;altitude;pressure_sealevel;temperature
37452;BMP280;23314;51.114;6.900;2022-07-03T00:01:21;101436.78;;;21.03
37452;BMP280;23314;51.114;6.900;2022-07-03T00:03:46;101432.75;;;20.98
37452;BMP280;23314;51.114;6.900;2022-07-03T00:06:11;101432.16;;;20.94
37452;BMP280;23314;51.114;6.900;2022-07-03T00:08:37;101438.69;;;20.88
37452;BMP280;23314;51.114;6.900;2022-07-03T00:11:04;101446.53;;;20.86
37452;BMP280;23314;51.114;6.900;2022-07-03T00:13:29;101436.31;;;20.80
37452;BMP280;23314;51.114;6.900;2022-07-03T00:15:55;101434.97;;;20.76
37452;BMP280;23314;51.114;6.900;2022-07-03T00:18:20;101441.75;;;20.71
37452;BMP280;23314;51.114;6.900;2022-07-03T00:20:49;101443.16;;;20.67
37452;BMP280;23314;51.114;6.900;2022-07-03T00:23:21;101444.84;;;20.64
37452;BMP280;23314;51.114;6.900;2022-07-03T00:25:49;101433.84;;;20.58
37452;BMP280;23314;51.114;6.900;2022-07-03T00:28:14;101437.22;;;20.53
37452;BMP280;23314;51.114;6.900;2022-07-03T00:30:42;101445.78;;;20.52
37452;BMP280;23314;51.114;6.900;2022-07-03T00:33:09;101450.31;;;20.45
37452;BMP280;23314;51.114;6.900;2022-07-03T00:35:36;101438.44;;;20.43
37452;BMP280;23314;51.114;6.900;2022-07-03T00:38:03;101449.47;;;20.39
37452;BMP280;23314;51.114;6.900;2022-07-03T00:40:29;101448.69;;;20.39
37452;BMP280;23314;51.114;6.900;2022-07-03T00:42:55;101449.91;;;20.38
37452;BMP280;23314;51.114;6.900;2022-07-03T00:45:21;101448.69;;;20.39
37452;BMP280;23314;51.114;6.900;2022-07-03T00:47:47;101443.56;;;20.41
37452;BMP280;23314;51.114;6.900;2022-07-03T00:50:13;101441.91;;;20.43
37452;BMP280;23314;51.114;6.900;2022-07-03T00:52:45;101447.47;;;20.49
37452;BMP280;23314;51.114;6.900;2022-07-03T00:55:14;101439.16;;;20.53
37452;BMP280;23314;51.114;6.900;2022-07-03T00:57:44;101439.44;;;20.55
37452;BMP280;23314;51.114;6.900;2022-07-03T01:00:10;101427.09;;;20.54
37452;BMP280;23314;51.114;6.900;2022-07-03T01:03:05;101420.66;;;20.51
37452;BMP280;23314;51.114;6.900;2022-07-03T01:05:39;101428.63;;;20.45
37452;BMP280;23314;51.114;6.900;2022-07-03T01:11:06;101420.28;;;20.34
37452;BMP280;23314;51.114;6.900;2022-07-03T01:16:24;101411.13;;;20.22
37452;BMP280;23314;51.114;6.900;2022-07-03T01:22:03;101407.06;;;20.18
37452;BMP280;23314;51.114;6.900;2022-07-03T01:24:53;101405.00;;;20.12
37452;BMP280;23314;51.114;6.900;2022-07-03T01:27:28;101414.94;;;20.06
37452;BMP280;23314;51.114;6.900;2022-07-03T01:30:07;101400.06;;;20.02
37452;BMP280;23314;51.114;6.900;2022-07-03T01:32:43;101408.78;;;19.97
37452;BMP280;23314;51.114;6.900;2022-07-03T01:35:12;101403.69;;;19.89
37452;BMP280;23314;51.114;6.900;2022-07-03T01:37:39;101406.25;;;19.84
37452;BMP280;23314;51.114;6.900;2022-07-03T01:40:04;101401.47;;;19.78
37452;BMP280;23314;51.114;6.900;2022-07-03T01:42:33;101400.13;;;19.74
37452;BMP280;23314;51.114;6.900;2022-07-03T01:44:59;101406.16;;;19.69
37452;BMP280;23314;51.114;6.900;2022-07-03T01:47:26;101401.31;;;19.64
37452;BMP280;23314;51.114;6.900;2022-07-03T01:49:53;101399.22;;;19.58
37452;BMP280;23314;51.114;6.900;2022-07-03T01:52:20;101397.44;;;19.55
37452;BMP280;23314;51.114;6.900;2022-07-03T01:54:46;101405.25;;;19.53
37452;BMP280;23314;51.114;6.900;2022-07-03T01:57:12;101396.53;;;19.49
37452;BMP280;23314;51.114;6.900;2022-07-03T01:59:38;101397.28;;;19.50
37452;BMP280;23314;51.114;6.900;2022-07-03T02:02:24;101394.72;;;19.46
37452;BMP280;23314;51.114;6.900;2022-07-03T02:05:47;101397.13;;;19.44
37452;BMP280;23314;51.114;6.900;2022-07-03T02:07:52;101392.16;;;19.42
37452;BMP280;23314;51.114;6.900;2022-07-03T02:10:27;101397.59;;;19.42
37452;BMP280;23314;51.114;6.900;2022-07-03T02:13:00;101391.72;;;19.44
37452;BMP280;23314;51.114;6.900;2022-07-03T02:15:31;101396.97;;;19.48
37452;BMP280;23314;51.114;6.900;2022-07-03T02:18:08;101401.19;;;19.49
37452;BMP280;23314;51.114;6.900;2022-07-03T02:20:36;101404.47;;;19.53
37452;BMP280;23314;51.114;6.900;2022-07-03T02:23:05;101405.25;;;19.53
37452;BMP280;23314;51.114;6.900;2022-07-03T02:25:36;101406.75;;;19.54
37452;BMP280;23314;51.114;6.900;2022-07-03T02:30:59;101399.25;;;19.49
37452;BMP280;23314;51.114;6.900;2022-07-03T02:33:29;101398.91;;;19.47
37452;BMP280;23314;51.114;6.900;2022-07-03T02:35:56;101399.53;;;19.42
37452;BMP280;23314;51.114;6.900;2022-07-03T02:38:23;101396.22;;;19.38
37452;BMP280;23314;51.114;6.900;2022-07-03T02:40:57;101393.38;;;19.32
37452;BMP280;23314;51.114;6.900;2022-07-03T02:43:44;101401.63;;;19.29
37452;BMP280;23314;51.114;6.900;2022-07-03T02:52:12;101395.78;;;19.30
37452;BMP280;23314;51.114;6.900;2022-07-03T02:54:44;101393.84;;;19.31
37452;BMP280;23314;51.114;6.900;2022-07-03T02:57:16;101399.25;;;19.31
37452;BMP280;23314;51.114;6.900;2022-07-03T02:59:52;101397.88;;;19.26
37452;BMP280;23314;51.114;6.900;2022-07-03T03:05:01;101398.31;;;19.15
37452;BMP280;23314;51.114;6.900;2022-07-03T03:10:35;101392.88;;;18.97
37452;BMP280;23314;51.114;6.900;2022-07-03T03:13:06;101399.34;;;18.90
37452;BMP280;23314;51.114;6.900;2022-07-03T03:15:33;101404.84;;;18.86
37452;BMP280;23314;51.114;6.900;2022-07-03T03:18:04;101409.69;;;18.82
37452;BMP280;23314;51.114;6.900;2022-07-03T03:20:33;101407.88;;;18.79
37452;BMP280;23314;51.114;6.900;2022-07-03T03:23:10;101417.28;;;18.74
37452;BMP280;23314;51.114;6.900;2022-07-03T03:25:37;101412.03;;;18.71
37452;BMP280;23314;51.114;6.900;2022-07-03T03:28:03;101412.50;;;18.69
37452;BMP280;23314;51.114;6.900;2022-07-03T03:30:29;101412.91;;;18.68
37452;BMP280;23314;51.114;6.900;2022-07-03T03:32:54;101415.63;;;18.68
37452;BMP280;23314;51.114;6.900;2022-07-03T03:35:20;101411.72;;;18.69
37452;BMP280;23314;51.114;6.900;2022-07-03T03:37:45;101418.31;;;18.68
37452;BMP280;23314;51.114;6.900;2022-07-03T03:40:15;101410.53;;;18.70
37452;BMP280;23314;51.114;6.900;2022-07-03T03:42:40;101414.00;;;18.70
37452;BMP280;23314;51.114;6.900;2022-07-03T03:45:06;101417.91;;;18.69
37452;BMP280;23314;51.114;6.900;2022-07-03T03:47:32;101418.31;;;18.68
37452;BMP280;23314;51.114;6.900;2022-07-03T03:49:57;101422.25;;;18.67
37452;BMP280;23314;51.114;6.900;2022-07-03T03:52:23;101428.38;;;18.67
37452;BMP280;23314;51.114;6.900;2022-07-03T03:54:48;101427.94;;;18.69
37452;BMP280;23314;51.114;6.900;2022-07-03T03:57:19;101425.56;;;18.71
37452;BMP280;23314;51.114;6.900;2022-07-03T03:59:45;101436.66;;;18.73
37452;BMP280;23314;51.114;6.900;2022-07-03T04:02:10;101429.19;;;18.77
37452;BMP280;23314;51.114;6.900;2022-07-03T04:04:39;101430.22;;;18.80
37452;BMP280;23314;51.114;6.900;2022-07-03T04:07:05;101430.53;;;18.82
37452;BMP280;23314;51.114;6.900;2022-07-03T04:09:33;101429.03;;;18.81
37452;BMP280;23314;51.114;6.900;2022-07-03T04:11:59;101430.69;;;18.78
37452;BMP280;23314;51.114;6.900;2022-07-03T04:14:24;101431.44;;;18.79
37452;BMP280;23314;51.114;6.900;2022-07-03T04:16:50;101432.31;;;18.75
37452;BMP280;23314;51.114;6.900;2022-07-03T04:19:15;101433.38;;;18.78
37452;BMP280;23314;51.114;6.900;2022-07-03T04:21:41;101438.53;;;18.85
37452;BMP280;23314;51.114;6.900;2022-07-03T04:24:06;101448.31;;;18.92
37452;BMP280;23314;51.114;6.900;2022-07-03T04:26:32;101452.09;;;19.04
37452;BMP280;23314;51.114;6.900;2022-07-03T04:28:57;101446.53;;;19.07
37452;BMP280;23314;51.114;6.900;2022-07-03T04:31:23;101447.75;;;19.25
37452;BMP280;23314;51.114;6.900;2022-07-03T04:33:48;101452.59;;;19.30
37452;BMP280;23314;51.114;6.900;2022-07-03T04:36:15;101458.91;;;19.36
37452;BMP280;23314;51.114;6.900;2022-07-03T04:38:40;101455.16;;;19.43
37452;BMP280;23314;51.114;6.900;2022-07-03T04:41:06;101455.44;;;19.91
37452;BMP280;23314;51.114;6.900;2022-07-03T04:43:31;101459.59;;;20.29
37452;BMP280;23314;51.114;6.900;2022-07-03T04:45:56;101477.53;;;20.60
37452;BMP280;23314;51.114;6.900;2022-07-03T04:48:22;101478.13;;;20.64
37452;BMP280;23314;51.114;6.900;2022-07-03T04:50:47;101486.22;;;20.74
37452;BMP280;23314;51.114;6.900;2022-07-03T04:53:12;101478.72;;;20.59
37452;BMP280;23314;51.114;6.900;2022-07-03T04:55:38;101478.31;;;20.52
37452;BMP280;23314;51.114;6.900;2022-07-03T04:58:03;101482.88;;;20.79
37452;BMP280;23314;51.114;6.900;2022-07-03T05:00:28;101481.50;;;21.08
37452;BMP280;23314;51.114;6.900;2022-07-03T05:03:03;101476.94;;;21.14
37452;BMP280;23314;51.114;6.900;2022-07-03T05:05:29;101482.94;;;21.18
37452;BMP280;23314;51.114;6.900;2022-07-03T05:07:54;101476.59;;;21.21
37452;BMP280;23314;51.114;6.900;2022-07-03T05:10:20;101487.28;;;21.25
37452;BMP280;23314;51.114;6.900;2022-07-03T05:12:45;101478.63;;;21.26
37452;BMP280;23314;51.114;6.900;2022-07-03T05:15:10;101479.22;;;21.30
37452;BMP280;23314;51.114;6.900;2022-07-03T05:17:36;101479.34;;;21.36
37452;BMP280;23314;51.114;6.900;2022-07-03T05:20:03;101482.44;;;21.44
37452;BMP280;23314;51.114;6.900;2022-07-03T05:22:48;101481.81;;;21.49
37452;BMP280;23314;51.114;6.900;2022-07-03T05:25:13;101489.97;;;21.49
37452;BMP280;23314;51.114;6.900;2022-07-03T05:27:38;101491.16;;;21.48
37452;BMP280;23314;51.114;6.900;2022-07-03T05:30:04;101491.06;;;21.42
37452;BMP280;23314;51.114;6.900;2022-07-03T05:32:30;101491.84;;;21.43
37452;BMP280;23314;51.114;6.900;2022-07-03T05:34:55;101486.41;;;21.43
37452;BMP280;23314;51.114;6.900;2022-07-03T05:37:21;101487.41;;;21.45
37452;BMP280;23314;51.114;6.900;2022-07-03T05:39:46;101482.75;;;21.46
37452;BMP280;23314;51.114;6.900;2022-07-03T05:42:11;101492.84;;;21.45
37452;BMP280;23314;51.114;6.900;2022-07-03T05:44:37;101494.34;;;21.46
37452;BMP280;23314;51.114;6.900;2022-07-03T05:47:02;101504.75;;;21.48
37452;BMP280;23314;51.114;6.900;2022-07-03T05:49:27;101510.44;;;21.50
37452;BMP280;23314;51.114;6.900;2022-07-03T05:51:53;101509.97;;;21.51
37452;BMP280;23314;51.114;6.900;2022-07-03T05:54:18;101513.94;;;21.50
37452;BMP280;23314;51.114;6.900;2022-07-03T05:56:44;101514.50;;;21.55
37452;BMP280;23314;51.114;6.900;2022-07-03T05:59:09;101510.84;;;21.58
37452;BMP280;23314;51.114;6.900;2022-07-03T06:01:34;101505.53;;;21.63
37452;BMP280;23314;51.114;6.900;2022-07-03T06:04:00;101504.09;;;21.68
37452;BMP280;23314;51.114;6.900;2022-07-03T06:06:25;101500.38;;;21.65
37452;BMP280;23314;51.114;6.900;2022-07-03T06:08:50;101509.25;;;21.66
37452;BMP280;23314;51.114;6.900;2022-07-03T06:11:16;101499.44;;;21.68
37452;BMP280;23314;51.114;6.900;2022-07-03T06:13:42;101503.19;;;21.71
37452;BMP280;23314;51.114;6.900;2022-07-03T06:16:07;101502.91;;;21.69
37452;BMP280;23314;51.114;6.900;2022-07-03T06:18:32;101504.41;;;21.70
37452;BMP280;23314;51.114;6.900;2022-07-03T06:20:58;101509.94;;;21.76
37452;BMP280;23314;51.114;6.900;2022-07-03T06:23:23;101506.56;;;21.81
37452;BMP280;23314;51.114;6.900;2022-07-03T06:25:48;101515.09;;;21.89
37452;BMP280;23314;51.114;6.900;2022-07-03T06:28:14;101510.06;;;21.96
37452;BMP280;23314;51.114;6.900;2022-07-03T06:30:39;101516.53;;;21.99
37452;BMP280;23314;51.114;6.900;2022-07-03T06:33:05;101508.81;;;21.97
37452;BMP280;23314;51.114;6.900;2022-07-03T06:35:30;101516.97;;;21.97
37452;BMP280;23314;51.114;6.900;2022-07-03T06:38:00;101514.06;;;22.01
37452;BMP280;23314;51.114;6.900;2022-07-03T06:40:26;101523.84;;;22.08
37452;BMP280;23314;51.114;6.900;2022-07-03T06:42:51;101528.13;;;22.14
37452;BMP280;23314;51.114;6.900;2022-07-03T06:45:16;101524.97;;;22.16
37452;BMP280;23314;51.114;6.900;2022-07-03T06:47:42;101533.75;;;22.26
37452;BMP280;23314;51.114;6.900;2022-07-03T06:50:07;101522.25;;;22.31
37452;BMP280;23314;51.114;6.900;2022-07-03T06:52:33;101528.31;;;22.41
37452;BMP280;23314;51.114;6.900;2022-07-03T06:54:58;101525.97;;;22.48
37452;BMP280;23314;51.114;6.900;2022-07-03T06:57:23;101525.06;;;22.57
37452;BMP280;23314;51.114;6.900;2022-07-03T06:59:49;101530.41;;;22.66
37452;BMP280;23314;51.114;6.900;2022-07-03T07:02:14;101524.50;;;22.68
37452;BMP280;23314;51.114;6.900;2022-07-03T07:04:39;101515.84;;;22.69
37452;BMP280;23314;51.114;6.900;2022-07-03T07:07:05;101520.16;;;22.76
37452;BMP280;23314;51.114;6.900;2022-07-03T07:09:30;101516.56;;;22.85
37452;BMP280;23314;51.114;6.900;2022-07-03T07:11:56;101514.41;;;22.89
37452;BMP280;23314;51.114;6.900;2022-07-03T07:14:21;101523.94;;;22.99
37452;BMP280;23314;51.114;6.900;2022-07-03T07:16:46;101516.03;;;23.01
37452;BMP280;23314;51.114;6.900;2022-07-03T07:19:12;101510.84;;;23.03
37452;BMP280;23314;51.114;6.900;2022-07-03T07:21:37;101517.38;;;23.12
37452;BMP280;23314;51.114;6.900;2022-07-03T07:24:03;101515.41;;;23.12
37452;BMP280;23314;51.114;6.900;2022-07-03T07:26:28;101508.19;;;23.09
37452;BMP280;23314;51.114;6.900;2022-07-03T07:28:53;101515.97;;;23.16
37452;BMP280;23314;51.114;6.900;2022-07-03T07:31:18;101516.75;;;23.22
37452;BMP280;23314;51.114;6.900;2022-07-03T07:33:44;101506.72;;;23.29
37452;BMP280;23314;51.114;6.900;2022-07-03T07:36:09;101512.47;;;23.36
37452;BMP280;23314;51.114;6.900;2022-07-03T07:38:34;101510.50;;;23.37
37452;BMP280;23314;51.114;6.900;2022-07-03T07:41:00;101513.53;;;23.44
37452;BMP280;23314;51.114;6.900;2022-07-03T07:43:25;101515.31;;;23.48
37452;BMP280;23314;51.114;6.900;2022-07-03T07:45:50;101517.84;;;23.51
37452;BMP280;23314;51.114;6.900;2022-07-03T07:48:17;101522.09;;;23.58
37452;BMP280;23314;51.114;6.900;2022-07-03T07:50:43;101525.16;;;23.66
37452;BMP280;23314;51.114;6.900;2022-07-03T07:53:08;101530.66;;;23.71
37452;BMP280;23314;51.114;6.900;2022-07-03T07:55:34;101527.44;;;23.73
37452;BMP280;23314;51.114;6.900;2022-07-03T07:57:59;101526.00;;;23.77
37452;BMP280;23314;51.114;6.900;2022-07-03T08:00:25;101536.41;;;23.79
37452;BMP280;23314;51.114;6.900;2022-07-03T08:02:50;101529.25;;;23.82
37452;BMP280;23314;51.114;6.900;2022-07-03T08:05:34;101519.91;;;23.88
37452;BMP280;23314;51.114;6.900;2022-07-03T08:08:13;101526.44;;;24.02
37452;BMP280;23314;51.114;6.900;2022-07-03T08:13:09;101524.84;;;24.16
37452;BMP280;23314;51.114;6.900;2022-07-03T08:15:35;101518.72;;;24.27
37452;BMP280;23314;51.114;6.900;2022-07-03T08:18:01;101525.94;;;24.36
37452;BMP280;23314;51.114;6.900;2022-07-03T08:20:27;101516.81;;;24.44
37452;BMP280;23314;51.114;6.900;2022-07-03T08:22:53;101522.81;;;24.48
37452;BMP280;23314;51.114;6.900;2022-07-03T08:25:19;101523.06;;;24.50
37452;BMP280;23314;51.114;6.900;2022-07-03T08:27:44;101524.56;;;24.51
37452;BMP280;23314;51.114;6.900;2022-07-03T08:30:10;101527.28;;;24.51
37452;BMP280;23314;51.114;6.900;2022-07-03T08:32:36;101526.06;;;24.52
37452;BMP280;23314;51.114;6.900;2022-07-03T08:35:01;101533.03;;;24.59
37452;BMP280;23314;51.114;6.900;2022-07-03T08:37:27;101529.06;;;24.60
37452;BMP280;23314;51.114;6.900;2022-07-03T08:39:52;101528.34;;;24.60
37452;BMP280;23314;51.114;6.900;2022-07-03T08:42:19;101516.47;;;24.68
37452;BMP280;23314;51.114;6.900;2022-07-03T08:44:46;101520.22;;;24.77
37452;BMP280;23314;51.114;6.900;2022-07-03T08:47:13;101522.66;;;24.75
37452;BMP280;23314;51.114;6.900;2022-07-03T08:49:39;101522.19;;;24.82
37452;BMP280;23314;51.114;6.900;2022-07-03T08:52:05;101521.25;;;24.91
37452;BMP280;23314;51.114;6.900;2022-07-03T08:54:35;101524.25;;;24.98
37452;BMP280;23314;51.114;6.900;2022-07-03T08:57:01;101524.25;;;24.98
37452;BMP280;23314;51.114;6.900;2022-07-03T08:59:36;101519.28;;;24.97
37452;BMP280;23314;51.114;6.900;2022-07-03T09:02:03;101523.06;;;25.05
37452;BMP280;23314;51.114;6.900;2022-07-03T09:04:30;101528.78;;;25.13
37452;BMP280;23314;51.114;6.900;2022-07-03T09:06:57;101522.88;;;25.20
37452;BMP280;23314;51.114;6.900;2022-07-03T09:09:23;101523.38;;;25.30
37452;BMP280;23314;51.114;6.900;2022-07-03T09:11:49;101519.63;;;25.33
37452;BMP280;23314;51.114;6.900;2022-07-03T09:14:15;101528.13;;;25.40
37452;BMP280;23314;51.114;6.900;2022-07-03T09:16:40;101529.59;;;25.47
37452;BMP280;23314;51.114;6.900;2022-07-03T09:19:06;101527.13;;;25.55
37452;BMP280;23314;51.114;6.900;2022-07-03T09:21:41;101528.13;;;25.63
37452;BMP280;23314;51.114;6.900;2022-07-03T09:24:08;101527.88;;;25.67
37452;BMP280;23314;51.114;6.900;2022-07-03T09:26:35;101525.13;;;25.67
37452;BMP280;23314;51.114;6.900;2022-07-03T09:29:00;101518.72;;;25.70
37452;BMP280;23314;51.114;6.900;2022-07-03T09:31:28;101523.66;;;25.77
37452;BMP280;23314;51.114;6.900;2022-07-03T09:36:49;101518.44;;;25.68
37452;BMP280;23314;51.114;6.900;2022-07-03T09:39:29;101530.38;;;25.76
37452;BMP280;23314;51.114;6.900;2022-07-03T09:42:08;101526.63;;;25.85
37452;BMP280;23314;51.114;6.900;2022-07-03T09:47:12;101538.06;;;25.94
37452;BMP280;23314;51.114;6.900;2022-07-03T09:50:00;101522.66;;;25.97
37452;BMP280;23314;51.114;6.900;2022-07-03T09:54:55;101521.91;;;26.02
37452;BMP280;23314;51.114;6.900;2022-07-03T09:57:21;101524.88;;;26.10
37452;BMP280;23314;51.114;6.900;2022-07-03T09:59:48;101523.84;;;26.19
37452;BMP280;23314;51.114;6.900;2022-07-03T10:02:14;101511.41;;;26.29
37452;BMP280;23314;51.114;6.900;2022-07-03T10:04:39;101516.63;;;26.27
37452;BMP280;23314;51.114;6.900;2022-07-03T10:07:04;101524.09;;;26.26
37452;BMP280;23314;51.114;6.900;2022-07-03T10:09:32;101524.38;;;26.17
37452;BMP280;23314;51.114;6.900;2022-07-03T10:11:59;101520.13;;;26.16
37452;BMP280;23314;51.114;6.900;2022-07-03T10:14:27;101514.41;;;26.25
37452;BMP280;23314;51.114;6.900;2022-07-03T10:16:53;101521.06;;;26.36
37452;BMP280;23314;51.114;6.900;2022-07-03T10:19:22;101524.03;;;26.49
37452;BMP280;23314;51.114;6.900;2022-07-03T10:21:51;101524.75;;;26.61
37452;BMP280;23314;51.114;6.900;2022-07-03T10:24:18;101525.50;;;26.61
37452;BMP280;23314;51.114;6.900;2022-07-03T10:26:43;101521.00;;;26.64
37452;BMP280;23314;51.114;6.900;2022-07-03T10:29:10;101522.94;;;26.69
37452;BMP280;23314;51.114;6.900;2022-07-03T10:31:37;101523.47;;;26.67
37452;BMP280;23314;51.114;6.900;2022-07-03T10:34:04;101523.22;;;26.65
37452;BMP280;23314;51.114;6.900;2022-07-03T10:36:30;101515.00;;;26.65
37452;BMP280;23314;51.114;6.900;2022-07-03T10:38:57;101516.72;;;26.68
37452;BMP280;23314;51.114;6.900;2022-07-03T10:41:35;101523.66;;;26.75
37452;BMP280;23314;51.114;6.900;2022-07-03T10:44:20;101514.72;;;26.80
37452;BMP280;23314;51.114;6.900;2022-07-03T10:47:04;101511.97;;;26.80
37452;BMP280;23314;51.114;6.900;2022-07-03T10:49:29;101510.47;;;26.79
37452;BMP280;23314;51.114;6.900;2022-07-03T10:52:02;101507.94;;;26.87
37452;BMP280;23314;51.114;6.900;2022-07-03T10:54:29;101510.88;;;26.95
37452;BMP280;23314;51.114;6.900;2022-07-03T11:07:24;101493.94;;;27.32
37452;BMP280;23314;51.114;6.900;2022-07-03T11:15:34;101491.72;;;27.61
37452;BMP280;23314;51.114;6.900;2022-07-03T11:18:33;101496.44;;;27.66
37452;BMP280;23314;51.114;6.900;2022-07-03T11:24:00;101486.69;;;27.40
37452;BMP280;23314;51.114;6.900;2022-07-03T11:26:27;101493.19;;;27.37
37452;BMP280;23314;51.114;6.900;2022-07-03T11:28:53;101488.06;;;27.53
37452;BMP280;23314;51.114;6.900;2022-07-03T11:31:20;101483.63;;;27.74
37452;BMP280;23314;51.114;6.900;2022-07-03T11:41:19;101481.75;;;27.88
37452;BMP280;23314;51.114;6.900;2022-07-03T11:46:18;101480.38;;;27.76
37452;BMP280;23314;51.114;6.900;2022-07-03T11:48:43;101476.63;;;27.73
37452;BMP280;23314;51.114;6.900;2022-07-03T11:51:08;101475.84;;;27.78
37452;BMP280;23314;51.114;6.900;2022-07-03T11:53:38;101476.78;;;27.87
37452;BMP280;23314;51.114;6.900;2022-07-03T11:56:07;101479.97;;;27.91
37452;BMP280;23314;51.114;6.900;2022-07-03T11:58:42;101465.91;;;28.00
37452;BMP280;23314;51.114;6.900;2022-07-03T12:01:27;101481.53;;;28.05
37452;BMP280;23314;51.114;6.900;2022-07-03T12:04:03;101477.25;;;28.10
37452;BMP280;23314;51.114;6.900;2022-07-03T12:06:39;101470.59;;;28.24
37452;BMP280;23314;51.114;6.900;2022-07-03T12:09:23;101474.69;;;28.37
37452;BMP280;23314;51.114;6.900;2022-07-03T12:11:56;101462.19;;;28.41
37452;BMP280;23314;51.114;6.900;2022-07-03T12:17:14;101468.97;;;28.54
37452;BMP280;23314;51.114;6.900;2022-07-03T12:19:45;101458.59;;;28.65
37452;BMP280;23314;51.114;6.900;2022-07-03T12:22:10;101452.50;;;28.73
37452;BMP280;23314;51.114;6.900;2022-07-03T12:24:36;101455.38;;;28.80
37452;BMP280;23314;51.114;6.900;2022-07-03T12:27:03;101451.81;;;28.85
37452;BMP280;23314;51.114;6.900;2022-07-03T12:29:29;101457.22;;;28.91
37452;BMP280;23314;51.114;6.900;2022-07-03T12:31:55;101463.00;;;28.87
37452;BMP280;23314;51.114;6.900;2022-07-03T12:34:20;101459.41;;;28.79
37452;BMP280;23314;51.114;6.900;2022-07-03T12:36:59;101444.16;;;28.78
37452;BMP280;23314;51.114;6.900;2022-07-03T12:39:44;101454.56;;;28.85
37452;BMP280;23314;51.114;6.900;2022-07-03T12:42:20;101447.72;;;28.92
37452;BMP280;23314;51.114;6.900;2022-07-03T12:45:02;101460.72;;;29.05
37452;BMP280;23314;51.114;6.900;2022-07-03T12:47:29;101451.97;;;29.06
37452;BMP280;23314;51.114;6.900;2022-07-03T12:50:03;101454.81;;;29.01
37452;BMP280;23314;51.114;6.900;2022-07-03T12:52:30;101451.53;;;29.02
37452;BMP280;23314;51.114;6.900;2022-07-03T12:54:57;101460.16;;;29.25
37452;BMP280;23314;51.114;6.900;2022-07-03T12:57:23;101451.56;;;29.29
37452;BMP280;23314;51.114;6.900;2022-07-03T13:02:39;101452.47;;;29.51
37452;BMP280;23314;51.114;6.900;2022-07-03T13:05:16;101449.84;;;29.58
37452;BMP280;23314;51.114;6.900;2022-07-03T13:07:42;101448.41;;;29.78
37452;BMP280;23314;51.114;6.900;2022-07-03T13:10:08;101461.53;;;29.99
37452;BMP280;23314;51.114;6.900;2022-07-03T13:12:34;101464.16;;;30.05
37452;BMP280;23314;51.114;6.900;2022-07-03T13:15:01;101456.69;;;29.92
37452;BMP280;23314;51.114;6.900;2022-07-03T13:20:16;101459.22;;;29.90
37452;BMP280;23314;51.114;6.900;2022-07-03T13:22:42;101458.13;;;30.06
37452;BMP280;23314;51.114;6.900;2022-07-03T13:25:07;101446.03;;;30.23
37452;BMP280;23314;51.114;6.900;2022-07-03T13:27:33;101444.31;;;30.33
37452;BMP280;23314;51.114;6.900;2022-07-03T13:29:58;101456.03;;;30.33
37452;BMP280;23314;51.114;6.900;2022-07-03T13:32:23;101452.47;;;30.25
37452;BMP280;23314;51.114;6.900;2022-07-03T13:34:49;101454.28;;;30.23
37452;BMP280;23314;51.114;6.900;2022-07-03T13:37:14;101457.09;;;30.30
37452;BMP280;23314;51.114;6.900;2022-07-03T13:39:39;101465.03;;;30.34
37452;BMP280;23314;51.114;6.900;2022-07-03T13:42:05;101455.06;;;30.65
37452;BMP280;23314;51.114;6.900;2022-07-03T13:44:30;101450.75;;;30.99
37452;BMP280;23314;51.114;6.900;2022-07-03T13:46:56;101461.69;;;31.12
37452;BMP280;23314;51.114;6.900;2022-07-03T13:49:21;101448.69;;;30.91
37452;BMP280;23314;51.114;6.900;2022-07-03T13:51:46;101461.31;;;30.66
37452;BMP280;23314;51.114;6.900;2022-07-03T13:54:12;101449.44;;;30.50
37452;BMP280;23314;51.114;6.900;2022-07-03T13:56:37;101460.34;;;30.42
37452;BMP280;23314;51.114;6.900;2022-07-03T13:59:02;101456.63;;;30.18
37452;BMP280;23314;51.114;6.900;2022-07-03T14:01:28;101467.78;;;29.86
37452;BMP280;23314;51.114;6.900;2022-07-03T14:03:54;101450.97;;;29.63
37452;BMP280;23314;51.114;6.900;2022-07-03T14:06:19;101454.44;;;29.63
37452;BMP280;23314;51.114;6.900;2022-07-03T14:08:44;101455.41;;;29.66
37452;BMP280;23314;51.114;6.900;2022-07-03T14:11:10;101459.75;;;29.75
37452;BMP280;23314;51.114;6.900;2022-07-03T14:13:35;101453.19;;;29.65
37452;BMP280;23314;51.114;6.900;2022-07-03T14:16:00;101445.66;;;29.78
37452;BMP280;23314;51.114;6.900;2022-07-03T14:18:26;101450.06;;;30.08
37452;BMP280;23314;51.114;6.900;2022-07-03T14:20:51;101458.78;;;30.33
37452;BMP280;23314;51.114;6.900;2022-07-03T14:23:17;101460.09;;;30.19
37452;BMP280;23314;51.114;6.900;2022-07-03T14:25:42;101473.06;;;30.11
37452;BMP280;23314;51.114;6.900;2022-07-03T14:28:08;101461.50;;;30.12
37452;BMP280;23314;51.114;6.900;2022-07-03T14:30:52;101468.09;;;29.96
37452;BMP280;23314;51.114;6.900;2022-07-03T14:33:36;101470.53;;;29.86
37452;BMP280;23314;51.114;6.900;2022-07-03T14:36:01;101471.81;;;29.72
37452;BMP280;23314;51.114;6.900;2022-07-03T14:38:26;101479.09;;;29.56
37452;BMP280;23314;51.114;6.900;2022-07-03T14:40:52;101475.81;;;29.44
37452;BMP280;23314;51.114;6.900;2022-07-03T14:43:18;101474.84;;;29.28
37452;BMP280;23314;51.114;6.900;2022-07-03T14:45:43;101476.31;;;29.16
37452;BMP280;23314;51.114;6.900;2022-07-03T14:48:08;101483.88;;;29.10
37452;BMP280;23314;51.114;6.900;2022-07-03T14:50:34;101492.41;;;29.25
37452;BMP280;23314;51.114;6.900;2022-07-03T14:52:59;101473.41;;;29.40
37452;BMP280;23314;51.114;6.900;2022-07-03T14:55:29;101493.28;;;29.47
37452;BMP280;23314;51.114;6.900;2022-07-03T14:58:04;101484.88;;;29.25
37452;BMP280;23314;51.114;6.900;2022-07-03T15:00:32;101479.44;;;29.06
37452;BMP280;23314;51.114;6.900;2022-07-03T15:03:16;101479.63;;;28.95
37452;BMP280;23314;51.114;6.900;2022-07-03T15:05:42;101486.19;;;29.05
37452;BMP280;23314;51.114;6.900;2022-07-03T15:10:55;101482.19;;;29.52
37452;BMP280;23314;51.114;6.900;2022-07-03T15:13:23;101474.47;;;29.51
37452;BMP280;23314;51.114;6.900;2022-07-03T15:15:51;101480.88;;;29.40